sensor_id;sensor_type;location;lat;lon;timestamp;P1;durP1;ratioP1;P2;durP2;ratioP2
17494;SDS011;8864;51.970;4.614;2023-01-29T00:01:31;3.55;;;2.13;;
17494;SDS011;8864;51.970;4.614;2023-01-29T00:04:00;2.90;;;1.63;;
17494;SDS011;8864;51.970;4.614;2023-01-29T00:06:27;5.40;;;1.88;;
17494;SDS011;8864;51.970;4.614;2023-01-29T00:08:54;3.28;;;1.63;;
17494;SDS011;8864;51.970;4.614;2023-01-29T00:11:21;5.38;;;1.98;;
17494;SDS011;8864;51.970;4.614;2023-01-29T00:13:49;6.30;;;1.70;;
17494;SDS011;8864;51.970;4.614;2023-01-29T00:16:17;4.22;;;2.00;;
17494;SDS011;8864;51.970;4.614;2023-01-29T00:18:45;2.75;;;1.48;;
17494;SDS011;8864;51.970;4.614;2023-01-29T00:21:14;4.45;;;1.88;;
17494;SDS011;8864;51.970;4.614;2023-01-29T00:23:43;2.63;;;1.80;;
17494;SDS011;8864;51.970;4.614;2023-01-29T00:26:11;3.17;;;1.60;;
17494;SDS011;8864;51.970;4.614;2023-01-29T00:28:39;2.28;;;1.55;;
17494;SDS011;8864;51.970;4.614;2023-01-29T00:31:06;3.60;;;2.00;;
17494;SDS011;8864;51.970;4.614;2023-01-29T00:33:34;3.88;;;1.88;;
17494;SDS011;8864;51.970;4.614;2023-01-29T00:36:02;3.30;;;1.63;;
17494;SDS011;8864;51.970;4.614;2023-01-29T00:38:33;3.13;;;1.80;;
17494;SDS011;8864;51.970;4.614;2023-01-29T00:41:04;2.40;;;1.77;;
17494;SDS011;8864;51.970;4.614;2023-01-29T00:43:49;2.83;;;1.80;;
17494;SDS011;8864;51.970;4.614;2023-01-29T00:46:34;2.22;;;1.42;;
17494;SDS011;8864;51.970;4.614;2023-01-29T00:49:02;2.35;;;1.58;;
17494;SDS011;8864;51.970;4.614;2023-01-29T00:51:32;4.47;;;1.88;;
17494;SDS011;8864;51.970;4.614;2023-01-29T00:54:02;4.28;;;1.80;;
17494;SDS011;8864;51.970;4.614;2023-01-29T00:56:31;2.63;;;1.60;;
17494;SDS011;8864;51.970;4.614;2023-01-29T00:58:59;3.05;;;1.70;;
17494;SDS011;8864;51.970;4.614;2023-01-29T01:01:26;3.00;;;1.67;;
17494;SDS011;8864;51.970;4.614;2023-01-29T01:04:10;3.75;;;2.00;;
17494;SDS011;8864;51.970;4.614;2023-01-29T01:06:38;3.88;;;1.90;;
17494;SDS011;8864;51.970;4.614;2023-01-29T01:09:08;3.92;;;1.60;;
17494;SDS011;8864;51.970;4.614;2023-01-29T01:11:53;3.22;;;2.05;;
17494;SDS011;8864;51.970;4.614;2023-01-29T01:14:20;2.60;;;1.35;;
17494;SDS011;8864;51.970;4.614;2023-01-29T01:16:47;2.78;;;1.70;;
17494;SDS011;8864;51.970;4.614;2023-01-29T01:19:15;2.17;;;1.77;;
17494;SDS011;8864;51.970;4.614;2023-01-29T01:21:42;2.85;;;1.92;;
17494;SDS011;8864;51.970;4.614;2023-01-29T01:24:13;4.22;;;1.92;;
17494;SDS011;8864;51.970;4.614;2023-01-29T01:26:40;2.70;;;1.65;;
17494;SDS011;8864;51.970;4.614;2023-01-29T01:29:07;3.20;;;1.92;;
17494;SDS011;8864;51.970;4.614;2023-01-29T01:31:35;2.33;;;1.73;;
17494;SDS011;8864;51.970;4.614;2023-01-29T01:34:03;2.78;;;1.98;;
17494;SDS011;8864;51.970;4.614;2023-01-29T01:36:30;2.88;;;1.90;;
17494;SDS011;8864;51.970;4.614;2023-01-29T01:38:57;2.58;;;1.90;;
17494;SDS011;8864;51.970;4.614;2023-01-29T01:41:26;3.78;;;1.83;;
17494;SDS011;8864;51.970;4.614;2023-01-29T01:43:55;2.17;;;1.42;;
17494;SDS011;8864;51.970;4.614;2023-01-29T01:46:23;3.85;;;2.05;;
17494;SDS011;8864;51.970;4.614;2023-01-29T01:48:55;3.28;;;1.90;;
17494;SDS011;8864;51.970;4.614;2023-01-29T01:51:25;3.30;;;1.70;;
17494;SDS011;8864;51.970;4.614;2023-01-29T01:53:56;2.75;;;1.80;;
17494;SDS011;8864;51.970;4.614;2023-01-29T01:56:31;2.75;;;1.98;;
17494;SDS011;8864;51.970;4.614;2023-01-29T01:59:06;3.50;;;1.98;;
17494;SDS011;8864;51.970;4.614;2023-01-29T02:01:36;1.90;;;1.50;;
17494;SDS011;8864;51.970;4.614;2023-01-29T02:04:07;2.80;;;1.85;;
17494;SDS011;8864;51.970;4.614;2023-01-29T02:06:56;3.20;;;1.67;;
17494;SDS011;8864;51.970;4.614;2023-01-29T02:09:45;4.10;;;1.85;;
17494;SDS011;8864;51.970;4.614;2023-01-29T02:12:19;2.70;;;1.73;;
17494;SDS011;8864;51.970;4.614;2023-01-29T02:14:47;2.72;;;1.67;;
17494;SDS011;8864;51.970;4.614;2023-01-29T02:17:15;3.42;;;1.73;;
17494;SDS011;8864;51.970;4.614;2023-01-29T02:19:46;2.80;;;1.60;;
17494;SDS011;8864;51.970;4.614;2023-01-29T02:22:30;2.55;;;1.60;;
17494;SDS011;8864;51.970;4.614;2023-01-29T02:28:40;3.03;;;1.75;;
17494;SDS011;8864;51.970;4.614;2023-01-29T02:31:15;3.35;;;2.05;;
17494;SDS011;8864;51.970;4.614;2023-01-29T02:33:54;3.92;;;1.70;;
17494;SDS011;8864;51.970;4.614;2023-01-29T02:36:31;5.15;;;1.90;;
17494;SDS011;8864;51.970;4.614;2023-01-29T02:39:08;4.35;;;1.80;;
17494;SDS011;8864;51.970;4.614;2023-01-29T02:41:41;3.20;;;1.83;;
17494;SDS011;8864;51.970;4.614;2023-01-29T02:44:15;7.35;;;2.00;;
17494;SDS011;8864;51.970;4.614;2023-01-29T02:46:50;4.30;;;2.00;;
17494;SDS011;8864;51.970;4.614;2023-01-29T02:49:26;4.93;;;1.90;;
17494;SDS011;8864;51.970;4.614;2023-01-29T02:51:59;3.63;;;1.83;;
17494;SDS011;8864;51.970;4.614;2023-01-29T02:54:32;3.00;;;1.80;;
17494;SDS011;8864;51.970;4.614;2023-01-29T02:57:10;3.50;;;2.03;;
17494;SDS011;8864;51.970;4.614;2023-01-29T02:59:46;4.30;;;1.90;;
17494;SDS011;8864;51.970;4.614;2023-01-29T03:02:20;4.07;;;1.85;;
17494;SDS011;8864;51.970;4.614;2023-01-29T03:04:57;1.90;;;1.60;;
17494;SDS011;8864;51.970;4.614;2023-01-29T03:07:27;2.97;;;1.60;;
17494;SDS011;8864;51.970;4.614;2023-01-29T03:10:10;3.25;;;2.03;;
17494;SDS011;8864;51.970;4.614;2023-01-29T03:12:43;3.35;;;2.00;;
17494;SDS011;8864;51.970;4.614;2023-01-29T03:15:19;3.22;;;2.05;;
17494;SDS011;8864;51.970;4.614;2023-01-29T03:17:52;5.95;;;2.15;;
17494;SDS011;8864;51.970;4.614;2023-01-29T03:20:25;4.85;;;2.42;;
17494;SDS011;8864;51.970;4.614;2023-01-29T03:23:00;3.22;;;2.30;;
17494;SDS011;8864;51.970;4.614;2023-01-29T03:25:33;2.47;;;1.85;;
17494;SDS011;8864;51.970;4.614;2023-01-29T03:28:18;4.20;;;2.30;;
17494;SDS011;8864;51.970;4.614;2023-01-29T03:31:08;5.13;;;2.45;;
17494;SDS011;8864;51.970;4.614;2023-01-29T03:33:57;3.75;;;2.17;;
17494;SDS011;8864;51.970;4.614;2023-01-29T03:36:28;4.30;;;2.67;;
17494;SDS011;8864;51.970;4.614;2023-01-29T03:39:03;4.45;;;2.45;;
17494;SDS011;8864;51.970;4.614;2023-01-29T03:41:32;5.10;;;2.22;;
17494;SDS011;8864;51.970;4.614;2023-01-29T03:44:04;3.50;;;2.10;;
17494;SDS011;8864;51.970;4.614;2023-01-29T03:46:40;4.40;;;2.70;;
17494;SDS011;8864;51.970;4.614;2023-01-29T03:49:15;4.22;;;2.30;;
17494;SDS011;8864;51.970;4.614;2023-01-29T03:51:50;3.78;;;2.30;;
17494;SDS011;8864;51.970;4.614;2023-01-29T03:54:24;3.60;;;2.25;;
17494;SDS011;8864;51.970;4.614;2023-01-29T03:56:58;5.45;;;2.78;;
17494;SDS011;8864;51.970;4.614;2023-01-29T03:59:32;4.97;;;2.75;;
17494;SDS011;8864;51.970;4.614;2023-01-29T04:02:07;4.47;;;2.40;;
17494;SDS011;8864;51.970;4.614;2023-01-29T04:04:40;4.32;;;2.17;;
17494;SDS011;8864;51.970;4.614;2023-01-29T04:07:12;5.25;;;2.20;;
17494;SDS011;8864;51.970;4.614;2023-01-29T04:09:44;3.70;;;2.25;;
17494;SDS011;8864;51.970;4.614;2023-01-29T04:12:13;3.03;;;2.20;;
17494;SDS011;8864;51.970;4.614;2023-01-29T04:14:48;3.13;;;1.95;;
17494;SDS011;8864;51.970;4.614;2023-01-29T04:17:19;4.55;;;2.47;;
17494;SDS011;8864;51.970;4.614;2023-01-29T04:19:49;5.78;;;2.50;;
17494;SDS011;8864;51.970;4.614;2023-01-29T04:22:18;4.18;;;2.70;;
17494;SDS011;8864;51.970;4.614;2023-01-29T04:24:47;3.42;;;2.40;;
17494;SDS011;8864;51.970;4.614;2023-01-29T04:27:19;8.95;;;2.20;;
17494;SDS011;8864;51.970;4.614;2023-01-29T04:30:03;6.53;;;2.42;;
17494;SDS011;8864;51.970;4.614;2023-01-29T04:32:44;2.70;;;1.90;;
17494;SDS011;8864;51.970;4.614;2023-01-29T04:35:30;5.05;;;2.17;;
17494;SDS011;8864;51.970;4.614;2023-01-29T04:38:08;2.30;;;1.88;;
17494;SDS011;8864;51.970;4.614;2023-01-29T04:40:42;4.25;;;2.05;;
17494;SDS011;8864;51.970;4.614;2023-01-29T04:43:19;3.08;;;2.00;;
17494;SDS011;8864;51.970;4.614;2023-01-29T04:45:56;4.30;;;2.25;;
17494;SDS011;8864;51.970;4.614;2023-01-29T04:48:36;12.82;;;2.60;;
17494;SDS011;8864;51.970;4.614;2023-01-29T04:51:15;2.85;;;2.13;;
17494;SDS011;8864;51.970;4.614;2023-01-29T04:53:49;2.90;;;2.03;;
17494;SDS011;8864;51.970;4.614;2023-01-29T04:56:24;3.38;;;2.10;;
17494;SDS011;8864;51.970;4.614;2023-01-29T04:59:00;2.05;;;1.70;;
17494;SDS011;8864;51.970;4.614;2023-01-29T05:01:30;2.85;;;2.00;;
17494;SDS011;8864;51.970;4.614;2023-01-29T05:04:01;5.32;;;2.03;;
17494;SDS011;8864;51.970;4.614;2023-01-29T05:06:31;2.80;;;2.08;;
17494;SDS011;8864;51.970;4.614;2023-01-29T05:09:01;3.35;;;2.20;;
17494;SDS011;8864;51.970;4.614;2023-01-29T05:11:28;3.30;;;1.90;;
17494;SDS011;8864;51.970;4.614;2023-01-29T05:13:57;2.80;;;1.83;;
17494;SDS011;8864;51.970;4.614;2023-01-29T05:16:25;3.45;;;1.95;;
17494;SDS011;8864;51.970;4.614;2023-01-29T05:19:07;3.60;;;2.45;;
17494;SDS011;8864;51.970;4.614;2023-01-29T05:21:35;4.63;;;2.20;;
17494;SDS011;8864;51.970;4.614;2023-01-29T05:24:06;3.25;;;1.95;;
17494;SDS011;8864;51.970;4.614;2023-01-29T05:26:35;3.38;;;2.10;;
17494;SDS011;8864;51.970;4.614;2023-01-29T05:29:19;3.60;;;2.10;;
17494;SDS011;8864;51.970;4.614;2023-01-29T05:31:46;3.90;;;2.30;;
17494;SDS011;8864;51.970;4.614;2023-01-29T05:34:15;3.00;;;2.00;;
17494;SDS011;8864;51.970;4.614;2023-01-29T05:36:42;3.67;;;2.10;;
17494;SDS011;8864;51.970;4.614;2023-01-29T05:39:09;3.05;;;2.17;;
17494;SDS011;8864;51.970;4.614;2023-01-29T05:41:39;3.47;;;1.92;;
17494;SDS011;8864;51.970;4.614;2023-01-29T05:44:08;3.33;;;2.13;;
17494;SDS011;8864;51.970;4.614;2023-01-29T05:46:35;3.92;;;2.20;;
17494;SDS011;8864;51.970;4.614;2023-01-29T05:49:03;3.78;;;2.08;;
17494;SDS011;8864;51.970;4.614;2023-01-29T05:51:32;2.80;;;1.85;;
17494;SDS011;8864;51.970;4.614;2023-01-29T05:54:01;2.78;;;2.05;;
17494;SDS011;8864;51.970;4.614;2023-01-29T05:56:28;3.80;;;1.65;;
17494;SDS011;8864;51.970;4.614;2023-01-29T05:58:55;2.80;;;2.10;;
17494;SDS011;8864;51.970;4.614;2023-01-29T06:01:24;3.60;;;2.17;;
17494;SDS011;8864;51.970;4.614;2023-01-29T06:03:51;2.67;;;1.83;;
17494;SDS011;8864;51.970;4.614;2023-01-29T06:06:19;3.97;;;2.00;;
17494;SDS011;8864;51.970;4.614;2023-01-29T06:08:47;3.50;;;2.10;;
17494;SDS011;8864;51.970;4.614;2023-01-29T06:11:16;3.13;;;2.08;;
17494;SDS011;8864;51.970;4.614;2023-01-29T06:13:44;2.42;;;1.90;;
17494;SDS011;8864;51.970;4.614;2023-01-29T06:16:12;4.78;;;2.15;;
17494;SDS011;8864;51.970;4.614;2023-01-29T06:18:40;2.80;;;2.10;;
17494;SDS011;8864;51.970;4.614;2023-01-29T06:21:08;4.43;;;2.30;;
17494;SDS011;8864;51.970;4.614;2023-01-29T06:23:37;5.30;;;2.28;;
17494;SDS011;8864;51.970;4.614;2023-01-29T06:26:07;3.25;;;2.10;;
17494;SDS011;8864;51.970;4.614;2023-01-29T06:28:36;3.67;;;2.20;;
17494;SDS011;8864;51.970;4.614;2023-01-29T06:31:03;3.55;;;2.33;;
17494;SDS011;8864;51.970;4.614;2023-01-29T06:33:32;2.95;;;2.13;;
17494;SDS011;8864;51.970;4.614;2023-01-29T06:36:02;3.60;;;2.25;;
17494;SDS011;8864;51.970;4.614;2023-01-29T06:38:30;5.15;;;2.83;;
17494;SDS011;8864;51.970;4.614;2023-01-29T06:40:57;6.72;;;2.38;;
17494;SDS011;8864;51.970;4.614;2023-01-29T06:43:36;3.63;;;2.20;;
17494;SDS011;8864;51.970;4.614;2023-01-29T06:46:03;3.88;;;2.25;;
17494;SDS011;8864;51.970;4.614;2023-01-29T06:48:31;5.88;;;2.08;;
17494;SDS011;8864;51.970;4.614;2023-01-29T06:51:00;2.83;;;2.08;;
17494;SDS011;8864;51.970;4.614;2023-01-29T06:53:27;4.70;;;2.30;;
17494;SDS011;8864;51.970;4.614;2023-01-29T06:55:55;3.33;;;2.28;;
17494;SDS011;8864;51.970;4.614;2023-01-29T06:58:23;5.03;;;2.50;;
17494;SDS011;8864;51.970;4.614;2023-01-29T07:00:51;3.60;;;2.00;;
17494;SDS011;8864;51.970;4.614;2023-01-29T07:03:19;4.32;;;2.35;;
17494;SDS011;8864;51.970;4.614;2023-01-29T07:05:50;3.60;;;2.22;;
17494;SDS011;8864;51.970;4.614;2023-01-29T07:08:18;3.08;;;1.88;;
17494;SDS011;8864;51.970;4.614;2023-01-29T07:10:46;4.18;;;2.30;;
17494;SDS011;8864;51.970;4.614;2023-01-29T07:13:13;3.88;;;2.53;;
17494;SDS011;8864;51.970;4.614;2023-01-29T07:15:42;3.10;;;2.10;;
17494;SDS011;8864;51.970;4.614;2023-01-29T07:18:10;4.95;;;2.40;;
17494;SDS011;8864;51.970;4.614;2023-01-29T07:20:37;5.82;;;2.20;;
17494;SDS011;8864;51.970;4.614;2023-01-29T07:23:05;3.83;;;2.10;;
17494;SDS011;8864;51.970;4.614;2023-01-29T07:25:34;4.15;;;2.20;;
17494;SDS011;8864;51.970;4.614;2023-01-29T07:28:02;3.17;;;2.35;;
17494;SDS011;8864;51.970;4.614;2023-01-29T07:30:31;5.50;;;2.20;;
17494;SDS011;8864;51.970;4.614;2023-01-29T07:33:01;7.65;;;2.30;;
17494;SDS011;8864;51.970;4.614;2023-01-29T07:35:35;4.22;;;2.20;;
17494;SDS011;8864;51.970;4.614;2023-01-29T07:38:06;3.55;;;2.22;;
17494;SDS011;8864;51.970;4.614;2023-01-29T07:40:33;3.42;;;2.25;;
17494;SDS011;8864;51.970;4.614;2023-01-29T07:43:03;2.85;;;2.10;;
17494;SDS011;8864;51.970;4.614;2023-01-29T07:45:32;3.70;;;2.28;;
17494;SDS011;8864;51.970;4.614;2023-01-29T07:48:02;4.53;;;2.38;;
17494;SDS011;8864;51.970;4.614;2023-01-29T07:50:33;2.85;;;1.98;;
17494;SDS011;8864;51.970;4.614;2023-01-29T07:53:06;3.75;;;2.08;;
17494;SDS011;8864;51.970;4.614;2023-01-29T07:55:37;3.47;;;2.20;;
17494;SDS011;8864;51.970;4.614;2023-01-29T07:58:05;3.35;;;2.40;;
17494;SDS011;8864;51.970;4.614;2023-01-29T08:00:32;3.53;;;2.22;;
17494;SDS011;8864;51.970;4.614;2023-01-29T08:03:02;3.47;;;2.20;;
17494;SDS011;8864;51.970;4.614;2023-01-29T08:05:30;4.20;;;2.60;;
17494;SDS011;8864;51.970;4.614;2023-01-29T08:07:58;5.57;;;2.50;;
17494;SDS011;8864;51.970;4.614;2023-01-29T08:10:26;3.10;;;2.30;;
17494;SDS011;8864;51.970;4.614;2023-01-29T08:12:55;4.00;;;2.40;;
17494;SDS011;8864;51.970;4.614;2023-01-29T08:15:23;2.95;;;2.00;;
17494;SDS011;8864;51.970;4.614;2023-01-29T08:17:51;3.65;;;2.25;;
17494;SDS011;8864;51.970;4.614;2023-01-29T08:20:23;4.03;;;2.45;;
17494;SDS011;8864;51.970;4.614;2023-01-29T08:22:57;4.93;;;2.33;;
17494;SDS011;8864;51.970;4.614;2023-01-29T08:25:25;4.65;;;2.40;;
17494;SDS011;8864;51.970;4.614;2023-01-29T08:27:52;4.55;;;2.95;;
17494;SDS011;8864;51.970;4.614;2023-01-29T08:30:21;5.50;;;2.50;;
17494;SDS011;8864;51.970;4.614;2023-01-29T08:32:48;107.05;;;16.42;;
17494;SDS011;8864;51.970;4.614;2023-01-29T08:35:17;64.55;;;10.85;;
17494;SDS011;8864;51.970;4.614;2023-01-29T08:37:46;56.13;;;10.43;;
17494;SDS011;8864;51.970;4.614;2023-01-29T08:40:18;48.15;;;9.38;;
17494;SDS011;8864;51.970;4.614;2023-01-29T08:42:45;58.00;;;10.00;;
17494;SDS011;8864;51.970;4.614;2023-01-29T08:45:13;112.32;;;17.20;;
17494;SDS011;8864;51.970;4.614;2023-01-29T08:47:44;76.88;;;14.23;;
17494;SDS011;8864;51.970;4.614;2023-01-29T08:50:12;67.60;;;13.27;;
17494;SDS011;8864;51.970;4.614;2023-01-29T08:52:39;85.30;;;13.30;;
17494;SDS011;8864;51.970;4.614;2023-01-29T08:55:08;59.15;;;12.43;;
17494;SDS011;8864;51.970;4.614;2023-01-29T08:57:38;55.22;;;11.90;;
17494;SDS011;8864;51.970;4.614;2023-01-29T09:00:05;57.17;;;10.55;;
17494;SDS011;8864;51.970;4.614;2023-01-29T09:02:34;56.10;;;11.43;;
17494;SDS011;8864;51.970;4.614;2023-01-29T09:05:03;56.00;;;11.18;;
17494;SDS011;8864;51.970;4.614;2023-01-29T09:07:34;50.55;;;10.50;;
17494;SDS011;8864;51.970;4.614;2023-01-29T09:10:03;40.35;;;10.32;;
17494;SDS011;8864;51.970;4.614;2023-01-29T09:12:34;40.13;;;9.25;;
17494;SDS011;8864;51.970;4.614;2023-01-29T09:15:07;43.55;;;9.70;;
17494;SDS011;8864;51.970;4.614;2023-01-29T09:17:36;35.58;;;8.48;;
17494;SDS011;8864;51.970;4.614;2023-01-29T09:20:04;36.13;;;9.13;;
17494;SDS011;8864;51.970;4.614;2023-01-29T09:22:34;33.80;;;8.55;;
17494;SDS011;8864;51.970;4.614;2023-01-29T09:25:05;35.42;;;8.52;;
17494;SDS011;8864;51.970;4.614;2023-01-29T09:27:34;34.42;;;8.32;;
17494;SDS011;8864;51.970;4.614;2023-01-29T09:30:02;32.78;;;8.75;;
17494;SDS011;8864;51.970;4.614;2023-01-29T09:32:31;27.45;;;7.78;;
17494;SDS011;8864;51.970;4.614;2023-01-29T09:34:59;32.70;;;9.23;;
17494;SDS011;8864;51.970;4.614;2023-01-29T09:37:26;25.27;;;6.88;;
17494;SDS011;8864;51.970;4.614;2023-01-29T09:39:53;29.48;;;8.15;;
17494;SDS011;8864;51.970;4.614;2023-01-29T09:42:20;30.70;;;7.38;;
17494;SDS011;8864;51.970;4.614;2023-01-29T09:44:58;20.92;;;7.38;;
17494;SDS011;8864;51.970;4.614;2023-01-29T09:47:29;20.88;;;6.82;;
17494;SDS011;8864;51.970;4.614;2023-01-29T09:50:00;21.88;;;7.18;;
17494;SDS011;8864;51.970;4.614;2023-01-29T09:52:31;20.20;;;7.05;;
17494;SDS011;8864;51.970;4.614;2023-01-29T09:55:05;16.30;;;6.53;;
17494;SDS011;8864;51.970;4.614;2023-01-29T09:57:40;16.50;;;6.55;;
17494;SDS011;8864;51.970;4.614;2023-01-29T10:00:14;19.33;;;7.65;;
17494;SDS011;8864;51.970;4.614;2023-01-29T10:02:56;20.20;;;7.45;;
17494;SDS011;8864;51.970;4.614;2023-01-29T10:05:36;19.00;;;7.55;;
17494;SDS011;8864;51.970;4.614;2023-01-29T10:11:33;18.40;;;8.50;;
17494;SDS011;8864;51.970;4.614;2023-01-29T10:14:10;19.30;;;8.73;;
17494;SDS011;8864;51.970;4.614;2023-01-29T10:16:52;17.13;;;7.88;;
17494;SDS011;8864;51.970;4.614;2023-01-29T10:19:40;21.73;;;8.57;;
17494;SDS011;8864;51.970;4.614;2023-01-29T10:22:31;18.80;;;8.25;;
17494;SDS011;8864;51.970;4.614;2023-01-29T10:25:13;17.45;;;7.63;;
17494;SDS011;8864;51.970;4.614;2023-01-29T10:27:44;17.02;;;8.43;;
17494;SDS011;8864;51.970;4.614;2023-01-29T10:30:20;17.13;;;8.35;;
17494;SDS011;8864;51.970;4.614;2023-01-29T10:33:02;18.35;;;9.50;;
17494;SDS011;8864;51.970;4.614;2023-01-29T10:35:31;18.98;;;8.50;;
17494;SDS011;8864;51.970;4.614;2023-01-29T10:38:11;19.48;;;9.05;;
17494;SDS011;8864;51.970;4.614;2023-01-29T10:40:49;21.92;;;8.50;;
17494;SDS011;8864;51.970;4.614;2023-01-29T10:43:26;19.05;;;9.88;;
17494;SDS011;8864;51.970;4.614;2023-01-29T10:46:03;34.45;;;17.05;;
17494;SDS011;8864;51.970;4.614;2023-01-29T10:48:46;36.78;;;17.55;;
17494;SDS011;8864;51.970;4.614;2023-01-29T10:51:31;42.88;;;23.65;;
17494;SDS011;8864;51.970;4.614;2023-01-29T10:54:17;50.83;;;24.70;;
17494;SDS011;8864;51.970;4.614;2023-01-29T10:57:00;46.72;;;23.23;;
17494;SDS011;8864;51.970;4.614;2023-01-29T10:59:53;44.97;;;23.60;;
17494;SDS011;8864;51.970;4.614;2023-01-29T11:02:29;41.85;;;21.23;;
17494;SDS011;8864;51.970;4.614;2023-01-29T11:05:00;44.28;;;19.27;;
17494;SDS011;8864;51.970;4.614;2023-01-29T11:07:27;35.10;;;18.58;;
17494;SDS011;8864;51.970;4.614;2023-01-29T11:09:59;37.55;;;17.58;;
17494;SDS011;8864;51.970;4.614;2023-01-29T11:12:33;36.33;;;17.52;;
17494;SDS011;8864;51.970;4.614;2023-01-29T11:15:04;34.03;;;15.90;;
17494;SDS011;8864;51.970;4.614;2023-01-29T11:17:38;27.20;;;14.18;;
17494;SDS011;8864;51.970;4.614;2023-01-29T11:20:11;32.97;;;15.90;;
17494;SDS011;8864;51.970;4.614;2023-01-29T11:22:52;25.95;;;13.02;;
17494;SDS011;8864;51.970;4.614;2023-01-29T11:25:20;23.20;;;12.85;;
17494;SDS011;8864;51.970;4.614;2023-01-29T11:27:49;23.35;;;12.00;;
17494;SDS011;8864;51.970;4.614;2023-01-29T11:30:20;19.85;;;11.15;;
17494;SDS011;8864;51.970;4.614;2023-01-29T11:32:50;26.55;;;10.38;;
17494;SDS011;8864;51.970;4.614;2023-01-29T11:35:25;21.48;;;10.85;;
17494;SDS011;8864;51.970;4.614;2023-01-29T11:37:55;19.30;;;10.10;;
17494;SDS011;8864;51.970;4.614;2023-01-29T11:40:37;16.63;;;9.07;;
17494;SDS011;8864;51.970;4.614;2023-01-29T11:43:18;20.17;;;9.75;;
17494;SDS011;8864;51.970;4.614;2023-01-29T11:45:48;19.48;;;8.10;;
17494;SDS011;8864;51.970;4.614;2023-01-29T11:48:17;18.15;;;8.23;;
17494;SDS011;8864;51.970;4.614;2023-01-29T11:50:52;14.95;;;7.90;;
17494;SDS011;8864;51.970;4.614;2023-01-29T11:53:23;13.77;;;6.93;;
17494;SDS011;8864;51.970;4.614;2023-01-29T11:56:00;14.07;;;7.40;;
17494;SDS011;8864;51.970;4.614;2023-01-29T11:58:31;14.98;;;6.78;;
17494;SDS011;8864;51.970;4.614;2023-01-29T12:01:00;15.40;;;6.72;;
17494;SDS011;8864;51.970;4.614;2023-01-29T12:03:31;14.25;;;6.72;;
17494;SDS011;8864;51.970;4.614;2023-01-29T12:06:04;11.85;;;6.10;;
17494;SDS011;8864;51.970;4.614;2023-01-29T12:08:34;13.98;;;5.70;;
17494;SDS011;8864;51.970;4.614;2023-01-29T12:11:06;11.38;;;5.88;;
17494;SDS011;8864;51.970;4.614;2023-01-29T12:13:34;10.88;;;5.70;;
17494;SDS011;8864;51.970;4.614;2023-01-29T12:16:04;8.82;;;4.90;;
17494;SDS011;8864;51.970;4.614;2023-01-29T12:18:40;8.70;;;4.70;;
17494;SDS011;8864;51.970;4.614;2023-01-29T12:21:12;11.23;;;5.15;;
17494;SDS011;8864;51.970;4.614;2023-01-29T12:23:45;9.07;;;4.10;;
17494;SDS011;8864;51.970;4.614;2023-01-29T12:26:18;9.18;;;4.95;;
17494;SDS011;8864;51.970;4.614;2023-01-29T12:28:53;7.90;;;4.30;;
17494;SDS011;8864;51.970;4.614;2023-01-29T12:31:39;10.82;;;4.57;;
17494;SDS011;8864;51.970;4.614;2023-01-29T12:34:14;8.48;;;4.47;;
17494;SDS011;8864;51.970;4.614;2023-01-29T12:36:48;8.30;;;4.25;;
17494;SDS011;8864;51.970;4.614;2023-01-29T12:39:18;8.23;;;3.80;;
17494;SDS011;8864;51.970;4.614;2023-01-29T12:41:47;6.63;;;3.65;;
17494;SDS011;8864;51.970;4.614;2023-01-29T12:44:18;7.45;;;4.32;;
17494;SDS011;8864;51.970;4.614;2023-01-29T12:46:51;7.93;;;4.05;;
17494;SDS011;8864;51.970;4.614;2023-01-29T12:49:21;6.10;;;3.45;;
17494;SDS011;8864;51.970;4.614;2023-01-29T12:51:56;6.47;;;3.70;;
17494;SDS011;8864;51.970;4.614;2023-01-29T12:54:30;7.75;;;3.83;;
17494;SDS011;8864;51.970;4.614;2023-01-29T12:57:07;9.20;;;3.90;;
17494;SDS011;8864;51.970;4.614;2023-01-29T12:59:46;6.13;;;3.60;;
17494;SDS011;8864;51.970;4.614;2023-01-29T13:02:22;7.45;;;3.65;;
17494;SDS011;8864;51.970;4.614;2023-01-29T13:04:58;8.50;;;3.58;;
17494;SDS011;8864;51.970;4.614;2023-01-29T13:07:33;15.00;;;3.75;;
17494;SDS011;8864;51.970;4.614;2023-01-29T13:10:06;6.40;;;3.15;;
17494;SDS011;8864;51.970;4.614;2023-01-29T13:12:38;5.60;;;2.95;;
17494;SDS011;8864;51.970;4.614;2023-01-29T13:15:14;5.22;;;3.17;;
17494;SDS011;8864;51.970;4.614;2023-01-29T13:17:48;5.30;;;3.08;;
17494;SDS011;8864;51.970;4.614;2023-01-29T13:20:22;4.85;;;3.00;;
17494;SDS011;8864;51.970;4.614;2023-01-29T13:22:54;4.57;;;3.28;;
17494;SDS011;8864;51.970;4.614;2023-01-29T13:25:24;6.30;;;2.92;;
17494;SDS011;8864;51.970;4.614;2023-01-29T13:27:52;4.68;;;2.85;;
17494;SDS011;8864;51.970;4.614;2023-01-29T13:30:24;6.40;;;3.45;;
17494;SDS011;8864;51.970;4.614;2023-01-29T13:32:56;4.38;;;2.45;;
17494;SDS011;8864;51.970;4.614;2023-01-29T13:35:33;5.90;;;2.95;;
17494;SDS011;8864;51.970;4.614;2023-01-29T13:38:15;5.15;;;2.55;;
17494;SDS011;8864;51.970;4.614;2023-01-29T13:40:48;4.95;;;2.70;;
17494;SDS011;8864;51.970;4.614;2023-01-29T13:43:17;4.28;;;2.67;;
17494;SDS011;8864;51.970;4.614;2023-01-29T13:45:46;4.32;;;2.50;;
17494;SDS011;8864;51.970;4.614;2023-01-29T13:48:18;3.08;;;2.30;;
17494;SDS011;8864;51.970;4.614;2023-01-29T13:50:49;5.32;;;2.40;;
17494;SDS011;8864;51.970;4.614;2023-01-29T13:53:20;5.68;;;2.70;;
17494;SDS011;8864;51.970;4.614;2023-01-29T13:55:50;7.30;;;2.75;;
17494;SDS011;8864;51.970;4.614;2023-01-29T13:58:50;5.32;;;2.72;;
17494;SDS011;8864;51.970;4.614;2023-01-29T14:04:23;5.07;;;2.45;;
17494;SDS011;8864;51.970;4.614;2023-01-29T14:06:54;5.13;;;2.83;;
17494;SDS011;8864;51.970;4.614;2023-01-29T14:12:31;4.28;;;2.60;;
17494;SDS011;8864;51.970;4.614;2023-01-29T14:17:54;4.35;;;2.17;;
17494;SDS011;8864;51.970;4.614;2023-01-29T14:20:27;5.75;;;2.38;;
17494;SDS011;8864;51.970;4.614;2023-01-29T14:22:58;7.03;;;2.65;;
17494;SDS011;8864;51.970;4.614;2023-01-29T14:25:28;4.15;;;2.17;;
17494;SDS011;8864;51.970;4.614;2023-01-29T14:28:00;3.72;;;2.17;;
17494;SDS011;8864;51.970;4.614;2023-01-29T14:30:30;10.50;;;2.63;;
17494;SDS011;8864;51.970;4.614;2023-01-29T14:32:59;4.88;;;2.03;;
17494;SDS011;8864;51.970;4.614;2023-01-29T14:35:30;3.28;;;2.42;;
17494;SDS011;8864;51.970;4.614;2023-01-29T14:38:03;4.13;;;2.05;;
17494;SDS011;8864;51.970;4.614;2023-01-29T14:40:31;3.65;;;2.17;;
17494;SDS011;8864;51.970;4.614;2023-01-29T14:43:02;5.20;;;2.00;;
17494;SDS011;8864;51.970;4.614;2023-01-29T14:45:33;3.42;;;2.22;;
17494;SDS011;8864;51.970;4.614;2023-01-29T14:48:03;3.97;;;2.30;;
17494;SDS011;8864;51.970;4.614;2023-01-29T14:51:04;3.30;;;2.10;;
17494;SDS011;8864;51.970;4.614;2023-01-29T14:53:41;6.65;;;1.85;;
17494;SDS011;8864;51.970;4.614;2023-01-29T14:56:14;3.67;;;2.10;;
17494;SDS011;8864;51.970;4.614;2023-01-29T14:58:55;4.00;;;2.10;;
17494;SDS011;8864;51.970;4.614;2023-01-29T15:01:32;4.22;;;1.95;;
17494;SDS011;8864;51.970;4.614;2023-01-29T15:04:02;2.88;;;1.80;;
17494;SDS011;8864;51.970;4.614;2023-01-29T15:06:33;2.85;;;2.08;;
17494;SDS011;8864;51.970;4.614;2023-01-29T15:09:11;3.28;;;1.92;;
17494;SDS011;8864;51.970;4.614;2023-01-29T15:11:44;3.85;;;2.17;;
17494;SDS011;8864;51.970;4.614;2023-01-29T15:14:25;7.43;;;2.22;;
17494;SDS011;8864;51.970;4.614;2023-01-29T15:17:01;4.13;;;2.22;;
17494;SDS011;8864;51.970;4.614;2023-01-29T15:19:41;5.13;;;2.10;;
17494;SDS011;8864;51.970;4.614;2023-01-29T15:22:10;3.08;;;1.92;;
17494;SDS011;8864;51.970;4.614;2023-01-29T15:24:39;4.95;;;2.13;;
17494;SDS011;8864;51.970;4.614;2023-01-29T15:27:09;4.97;;;2.00;;
17494;SDS011;8864;51.970;4.614;2023-01-29T15:29:40;4.05;;;2.13;;
17494;SDS011;8864;51.970;4.614;2023-01-29T15:32:11;4.55;;;2.10;;
17494;SDS011;8864;51.970;4.614;2023-01-29T15:34:53;3.13;;;1.90;;
17494;SDS011;8864;51.970;4.614;2023-01-29T15:37:24;2.72;;;2.00;;
17494;SDS011;8864;51.970;4.614;2023-01-29T15:39:52;4.03;;;1.95;;
17494;SDS011;8864;51.970;4.614;2023-01-29T15:42:20;4.40;;;1.80;;